createdAt,value
2022-08-17T00:01:56.206Z,62.95
2022-08-17T00:04:49.909Z,63.48
2022-08-17T00:07:38.796Z,63.58
2022-08-17T00:10:27.867Z,63.65
2022-08-17T00:13:28.376Z,62.87
2022-08-17T00:16:56.156Z,63.14
2022-08-17T00:19:42.699Z,62.67
2022-08-17T00:22:32.142Z,63.73
2022-08-17T00:25:23.975Z,62.95
2022-08-17T00:28:15.227Z,64.00
2022-08-17T00:31:07.332Z,63.98
2022-08-17T00:33:55.674Z,63.29
2022-08-17T00:36:43.717Z,63.22
2022-08-17T00:39:31.873Z,63.46
2022-08-17T00:42:20.450Z,63.86
2022-08-17T00:45:12.590Z,64.15
2022-08-17T00:48:00.284Z,63.19
2022-08-17T00:51:00.149Z,63.71
2022-08-17T00:54:00.334Z,63.99
2022-08-17T00:57:01.167Z,63.49
2022-08-17T01:00:02.953Z,64.37
2022-08-17T01:02:57.041Z,64.31
2022-08-17T01:05:48.644Z,63.75
2022-08-17T01:08:38.914Z,63.67
2022-08-17T01:11:29.579Z,64.31
2022-08-17T01:14:19.684Z,63.96
2022-08-17T01:17:09.019Z,64.10
2022-08-17T01:19:56.972Z,64.18
2022-08-17T01:22:45.515Z,63.93
2022-08-17T01:25:33.832Z,64.12
2022-08-17T01:28:52.947Z,63.83
2022-08-17T01:31:39.080Z,63.55
2022-08-17T01:34:36.839Z,63.27
2022-08-17T01:37:40.544Z,63.18
2022-08-17T01:40:45.896Z,62.76
2022-08-17T01:43:47.710Z,63.98
2022-08-17T01:46:37.580Z,63.84
2022-08-17T01:55:05.473Z,63.72
2022-08-17T01:57:53.139Z,63.72
2022-08-17T02:00:59.392Z,63.42
2022-08-17T02:03:53.142Z,62.96
2022-08-17T02:06:53.239Z,63.07
2022-08-17T02:09:44.219Z,63.93
2022-08-17T02:12:40.498Z,63.67
2022-08-17T02:15:29.380Z,63.68
2022-08-17T02:18:17.672Z,63.50
2022-08-17T02:21:07.338Z,64.04
2022-08-17T02:23:56.436Z,63.81
2022-08-17T02:26:45.027Z,63.49
2022-08-17T02:29:32.963Z,64.15
2022-08-17T02:32:27.595Z,63.85
2022-08-17T02:35:21.964Z,63.65
2022-08-17T02:38:10.505Z,63.52
2022-08-17T02:40:59.902Z,63.51
2022-08-17T02:43:49.349Z,63.66
2022-08-17T02:46:37.491Z,63.61
2022-08-17T02:49:31.149Z,63.89
2022-08-17T02:52:42.697Z,63.76
2022-08-17T02:55:38.947Z,63.70
2022-08-17T02:58:35.485Z,63.34
2022-08-17T03:01:24.872Z,63.09
2022-08-17T03:04:12.942Z,63.16
2022-08-17T03:07:01.190Z,62.84
2022-08-17T03:09:49.129Z,62.77
2022-08-17T03:12:41.826Z,62.49
2022-08-17T03:15:34.320Z,62.48
2022-08-17T03:18:25.706Z,62.34
2022-08-17T03:21:14.029Z,62.43
2022-08-17T03:24:09.022Z,62.27
2022-08-17T03:26:57.153Z,62.12
2022-08-17T03:29:45.013Z,61.83
2022-08-17T03:32:43.428Z,61.71
2022-08-17T03:35:34.110Z,61.54
2022-08-17T03:38:22.362Z,61.65
2022-08-17T03:41:11.163Z,61.65
2022-08-17T03:43:59.633Z,61.94
2022-08-17T03:47:05.987Z,61.96
2022-08-17T03:50:12.558Z,62.10
2022-08-17T03:53:27.738Z,61.91
2022-08-17T03:56:34.313Z,61.74
2022-08-17T03:59:23.290Z,61.58
2022-08-17T04:02:33.135Z,61.30
2022-08-17T04:05:21.882Z,60.81
2022-08-17T04:08:12.358Z,60.65
2022-08-17T04:11:01.568Z,60.59
2022-08-17T04:13:49.838Z,60.50
2022-08-17T04:16:38.041Z,60.54
2022-08-17T04:19:26.185Z,60.56
2022-08-17T04:22:31.074Z,60.34
2022-08-17T04:25:22.042Z,60.23
2022-08-17T04:28:14.621Z,60.50
2022-08-17T04:31:04.970Z,60.46
2022-08-17T04:33:55.499Z,60.43
2022-08-17T04:36:50.254Z,60.39
2022-08-17T04:39:38.151Z,60.42
2022-08-17T04:42:26.043Z,60.50
2022-08-17T04:45:14.084Z,60.53
2022-08-17T04:48:02.895Z,60.61
2022-08-17T04:50:51.840Z,60.38
2022-08-17T04:53:44.483Z,60.12
2022-08-17T04:56:35.962Z,59.25
2022-08-17T04:59:24.053Z,57.41
2022-08-17T05:02:14.308Z,58.46
2022-08-17T05:05:02.759Z,59.95
2022-08-17T05:07:56.751Z,64.32
2022-08-17T05:10:45.784Z,64.57
2022-08-17T05:13:34.049Z,62.38
2022-08-17T05:16:24.038Z,60.92
2022-08-17T05:19:14.164Z,59.54
2022-08-17T05:22:08.256Z,58.19
2022-08-17T05:24:56.264Z,61.56
2022-08-17T05:27:45.585Z,63.41
2022-08-17T05:30:35.500Z,63.09
2022-08-17T05:33:31.878Z,62.26
2022-08-17T05:36:42.824Z,61.36
2022-08-17T05:39:27.567Z,61.14
2022-08-17T05:42:19.966Z,60.33
2022-08-17T05:45:10.183Z,59.33
2022-08-17T05:47:58.094Z,57.24
2022-08-17T05:51:28.242Z,58.40
2022-08-17T05:54:29.691Z,61.51
2022-08-17T05:57:47.709Z,62.02
2022-08-17T06:01:27.385Z,60.58
2022-08-17T06:04:47.259Z,57.38
2022-08-17T06:07:40.379Z,59.69
2022-08-17T06:10:52.423Z,61.75
2022-08-17T06:13:50.990Z,61.53
2022-08-17T06:16:46.629Z,60.42
2022-08-17T06:19:55.068Z,58.16
2022-08-17T06:22:52.444Z,58.45
2022-08-17T06:25:51.613Z,61.08
2022-08-17T06:28:50.448Z,63.22
2022-08-17T06:31:40.575Z,61.77
2022-08-17T06:34:30.010Z,59.01
2022-08-17T06:37:48.968Z,59.17
2022-08-17T06:40:55.486Z,62.05
2022-08-17T06:43:56.864Z,60.59
2022-08-17T06:46:51.102Z,57.67
2022-08-17T06:50:07.351Z,57.52
2022-08-17T06:53:26.154Z,56.20
2022-08-17T06:56:53.547Z,53.62
2022-08-17T07:00:20.758Z,52.09
2022-08-17T07:03:09.220Z,48.55
2022-08-17T07:06:17.724Z,47.23
2022-08-17T07:09:28.249Z,45.08
2022-08-17T07:12:24.330Z,40.20
2022-08-17T07:15:43.159Z,41.82
2022-08-17T07:18:33.342Z,40.19
2022-08-17T07:21:26.673Z,39.13
2022-08-17T07:24:44.746Z,38.05
2022-08-17T07:27:45.413Z,37.41
2022-08-17T07:30:47.016Z,34.84
2022-08-17T07:33:37.195Z,35.16
2022-08-17T07:36:30.009Z,34.71
2022-08-17T07:39:28.185Z,34.65
2022-08-17T07:42:16.033Z,34.54
2022-08-17T07:45:24.275Z,34.02
2022-08-17T07:48:26.128Z,34.00
2022-08-17T07:51:27.910Z,32.93
2022-08-17T07:54:15.825Z,32.37
2022-08-17T07:57:15.552Z,32.00
2022-08-17T08:00:29.169Z,31.82
2022-08-17T08:03:31.997Z,31.62
2022-08-17T08:06:26.520Z,31.42
2022-08-17T08:09:29.286Z,30.71
2022-08-17T08:12:32.725Z,30.53
2022-08-17T08:15:33.443Z,29.85
2022-08-17T08:18:54.943Z,30.27
2022-08-17T08:22:06.270Z,30.30
2022-08-17T08:25:25.600Z,29.99
2022-08-17T08:28:51.349Z,29.51
2022-08-17T08:32:06.411Z,29.70
2022-08-17T08:35:06.898Z,29.72
2022-08-17T08:38:10.990Z,29.49
2022-08-17T08:41:38.620Z,29.36
2022-08-17T08:45:00.883Z,29.66
2022-08-17T08:48:46.160Z,29.18
2022-08-17T08:51:42.999Z,28.89
2022-08-17T08:54:35.791Z,28.76
2022-08-17T08:57:36.707Z,28.80
2022-08-17T09:00:27.509Z,28.60
2022-08-17T09:03:51.922Z,28.45
2022-08-17T09:07:15.408Z,28.47
2022-08-17T09:10:12.562Z,28.66
2022-08-17T09:13:22.859Z,28.85
2022-08-17T09:16:39.513Z,28.39
2022-08-17T09:20:27.164Z,28.23
2022-08-17T09:23:39.189Z,28.18
2022-08-17T09:27:13.634Z,28.19
2022-08-17T09:30:10.028Z,28.10
2022-08-17T09:33:06.577Z,27.27
2022-08-17T09:36:10.132Z,27.82
2022-08-17T09:39:29.357Z,27.84
2022-08-17T09:42:38.869Z,27.72
2022-08-17T09:45:35.649Z,27.60
2022-08-17T09:48:43.810Z,27.42
2022-08-17T09:51:46.102Z,27.92
2022-08-17T09:54:40.474Z,28.07
2022-08-17T09:57:47.717Z,28.14
2022-08-17T10:00:49.552Z,28.15
2022-08-17T10:03:59.388Z,28.10
2022-08-17T10:06:58.812Z,28.40
2022-08-17T10:10:03.083Z,28.42
2022-08-17T10:13:30.799Z,28.74
2022-08-17T10:16:41.233Z,28.63
2022-08-17T10:20:03.534Z,28.79
2022-08-17T10:23:31.500Z,28.96
2022-08-17T10:26:27.027Z,28.87
2022-08-17T10:29:53.730Z,28.77
2022-08-17T10:33:00.123Z,29.17
2022-08-17T10:36:22.024Z,29.07
2022-08-17T10:39:54.302Z,29.12
2022-08-17T10:43:00.853Z,28.95
2022-08-17T10:46:21.548Z,28.63
2022-08-17T10:49:21.368Z,28.93
2022-08-17T10:52:27.928Z,29.06
2022-08-17T10:55:19.001Z,29.45
2022-08-17T10:59:01.514Z,29.69
2022-08-17T11:01:49.458Z,30.29
2022-08-17T11:04:57.214Z,30.60
2022-08-17T11:08:21.982Z,30.62
2022-08-17T11:11:36.057Z,30.61
2022-08-17T11:14:36.315Z,31.01
2022-08-17T11:18:01.748Z,31.08
2022-08-17T11:21:27.450Z,31.34
2022-08-17T11:24:43.448Z,31.50
2022-08-17T11:27:36.425Z,31.56
2022-08-17T11:30:48.922Z,31.19
2022-08-17T11:33:45.129Z,31.73
2022-08-17T11:36:46.880Z,31.85
2022-08-17T11:40:34.395Z,32.27
2022-08-17T11:43:57.475Z,32.75
2022-08-17T11:47:30.089Z,33.36
2022-08-17T11:51:16.304Z,33.58
2022-08-17T11:54:33.239Z,33.75
2022-08-17T11:57:29.458Z,33.71
2022-08-17T12:00:45.238Z,33.97
2022-08-17T12:03:33.521Z,34.60
2022-08-17T12:06:30.330Z,34.84
2022-08-17T12:09:27.624Z,34.83
2022-08-17T12:12:29.824Z,35.79
2022-08-17T12:15:29.135Z,36.53
2022-08-17T12:18:32.448Z,37.56
2022-08-17T12:21:50.745Z,38.04
2022-08-17T12:24:55.518Z,38.69
2022-08-17T12:28:06.385Z,39.57
2022-08-17T12:31:01.655Z,39.93
2022-08-17T12:33:54.254Z,40.33
2022-08-17T12:36:42.216Z,40.74
2022-08-17T12:39:33.962Z,41.84
2022-08-17T12:42:37.594Z,41.81
2022-08-17T12:45:31.315Z,42.23
2022-08-17T12:48:26.339Z,42.48
2022-08-17T12:51:14.589Z,43.06
2022-08-17T12:54:03.021Z,43.21
2022-08-17T12:56:51.641Z,43.12
2022-08-17T12:59:49.319Z,43.16
2022-08-17T13:02:53.860Z,43.19
2022-08-17T13:05:54.984Z,44.24
2022-08-17T13:08:48.212Z,43.99
2022-08-17T13:11:36.204Z,44.89
2022-08-17T13:14:24.313Z,45.09
2022-08-17T13:17:14.044Z,45.29
2022-08-17T13:20:05.168Z,45.65
2022-08-17T13:23:01.991Z,45.91
2022-08-17T13:26:03.312Z,46.10
2022-08-17T13:28:51.948Z,46.15
2022-08-17T13:31:52.413Z,46.38
2022-08-17T13:35:14.256Z,46.75
2022-08-17T13:38:36.595Z,46.64
2022-08-17T13:41:37.653Z,46.46
2022-08-17T13:44:40.588Z,46.58
2022-08-17T13:47:29.088Z,46.99
2022-08-17T13:50:21.877Z,47.31
2022-08-17T13:53:22.746Z,47.45
2022-08-17T13:56:39.645Z,47.37
2022-08-17T13:59:54.992Z,47.52
2022-08-17T14:02:43.847Z,47.54
2022-08-17T14:05:32.574Z,47.43
2022-08-17T14:08:21.011Z,47.41
2022-08-17T14:11:09.130Z,47.36
2022-08-17T14:13:57.118Z,47.32
2022-08-17T14:16:45.483Z,47.34
2022-08-17T14:19:33.030Z,47.18
2022-08-17T14:22:35.873Z,47.24
2022-08-17T14:25:28.336Z,46.93
2022-08-17T14:28:17.274Z,46.95
2022-08-17T14:31:08.543Z,47.32
2022-08-17T14:33:59.257Z,47.12
2022-08-17T14:36:48.644Z,47.24
2022-08-17T14:39:36.733Z,47.64
2022-08-17T14:42:27.871Z,47.49
2022-08-17T14:45:29.938Z,47.57
2022-08-17T14:48:22.041Z,47.68
2022-08-17T14:51:09.949Z,47.72
2022-08-17T14:53:57.798Z,48.14
2022-08-17T14:56:47.325Z,48.62
2022-08-17T14:59:45.036Z,48.79
2022-08-17T15:02:48.314Z,48.96
2022-08-17T15:05:39.268Z,49.29
2022-08-17T15:08:28.519Z,49.42
2022-08-17T15:11:17.165Z,49.46
2022-08-17T15:14:05.342Z,49.94
2022-08-17T15:16:53.152Z,49.80
2022-08-17T15:19:41.218Z,49.91
2022-08-17T15:22:29.289Z,50.00
2022-08-17T15:25:19.329Z,50.17
2022-08-17T15:28:07.967Z,50.30
2022-08-17T15:30:55.731Z,50.57
2022-08-17T15:33:45.102Z,50.80
2022-08-17T15:36:37.622Z,51.02
2022-08-17T15:39:28.763Z,51.39
2022-08-17T15:42:23.551Z,51.89
2022-08-17T15:45:16.657Z,52.48
2022-08-17T15:48:04.788Z,52.38
2022-08-17T15:50:53.253Z,52.30
2022-08-17T15:53:45.018Z,52.54
2022-08-17T16:00:17.647Z,52.84
2022-08-17T16:03:45.668Z,53.17
2022-08-17T16:06:15.015Z,53.43
2022-08-17T16:09:05.169Z,53.35
2022-08-17T16:11:56.382Z,53.33
2022-08-17T16:14:47.148Z,53.47
2022-08-17T16:17:39.533Z,53.82
2022-08-17T16:20:30.746Z,54.28
2022-08-17T16:23:23.071Z,54.46
2022-08-17T16:26:11.113Z,54.87
2022-08-17T16:29:02.075Z,54.88
2022-08-17T16:31:50.483Z,55.25
2022-08-17T16:34:38.217Z,56.09
2022-08-17T16:37:26.321Z,56.45
2022-08-17T16:40:17.204Z,56.65
2022-08-17T16:43:10.727Z,56.88
2022-08-17T16:46:00.942Z,57.21
2022-08-17T16:48:49.287Z,57.18
2022-08-17T16:51:37.771Z,57.47
2022-08-17T16:54:26.827Z,57.74
2022-08-17T16:57:17.614Z,58.17
2022-08-17T17:00:11.887Z,58.38
2022-08-17T17:03:19.654Z,59.08
2022-08-17T17:06:13.799Z,59.15
2022-08-17T17:09:11.298Z,59.97
2022-08-17T17:12:03.288Z,60.12
2022-08-17T17:14:52.396Z,60.28
2022-08-17T17:17:40.811Z,60.83
2022-08-17T17:20:55.827Z,61.28
2022-08-17T17:24:00.430Z,61.36
2022-08-17T17:27:13.012Z,66.99
2022-08-17T17:30:35.209Z,65.81
2022-08-17T17:33:48.543Z,58.24
2022-08-17T17:36:56.405Z,56.79
2022-08-17T17:39:56.987Z,57.74
2022-08-17T17:42:45.843Z,58.79
2022-08-17T17:46:26.730Z,59.70
2022-08-17T17:49:20.507Z,60.42
2022-08-17T17:52:32.206Z,62.59
2022-08-17T17:56:29.668Z,64.58
2022-08-17T17:59:47.648Z,58.97
2022-08-17T18:03:15.601Z,59.62
2022-08-17T18:06:24.768Z,60.01
2022-08-17T18:09:34.059Z,62.68
2022-08-17T18:12:56.099Z,63.15
2022-08-17T18:15:52.445Z,60.53
2022-08-17T18:18:52.475Z,58.58
2022-08-17T18:21:46.047Z,59.50
2022-08-17T18:24:41.348Z,60.63
2022-08-17T18:27:37.941Z,63.30
2022-08-17T18:30:29.043Z,64.14
2022-08-17T18:33:26.667Z,63.47
2022-08-17T18:36:52.830Z,62.35
2022-08-17T18:39:55.244Z,58.91
2022-08-17T18:43:12.547Z,58.51
2022-08-17T18:46:28.046Z,59.71
2022-08-17T18:49:20.054Z,62.94
2022-08-17T18:52:24.354Z,63.62
2022-08-17T18:55:31.480Z,61.94
2022-08-17T18:58:25.684Z,60.89
2022-08-17T19:01:21.665Z,60.43
2022-08-17T19:05:01.298Z,60.74
2022-08-17T19:07:49.868Z,63.57
2022-08-17T19:10:46.101Z,66.22
2022-08-17T19:14:10.994Z,64.59
2022-08-17T19:17:23.799Z,63.26
2022-08-17T19:20:55.756Z,63.99
2022-08-17T19:24:00.857Z,63.43
2022-08-17T19:27:42.037Z,63.00
2022-08-17T19:30:36.288Z,62.37
2022-08-17T19:33:24.837Z,59.65
2022-08-17T19:36:22.456Z,59.71
2022-08-17T19:39:17.155Z,62.51
2022-08-17T19:42:31.781Z,66.01
2022-08-17T19:45:50.324Z,61.77
2022-08-17T19:49:11.877Z,63.22
2022-08-17T19:52:53.912Z,63.24
2022-08-17T19:56:34.340Z,63.86
2022-08-17T19:59:49.008Z,64.99
2022-08-17T20:02:52.211Z,64.43
2022-08-17T20:06:11.889Z,64.77
2022-08-17T20:09:29.805Z,65.01
2022-08-17T20:12:31.228Z,65.29
2022-08-17T20:15:30.194Z,65.07
2022-08-17T20:18:34.052Z,63.60
2022-08-17T20:21:34.971Z,64.12
2022-08-17T20:25:01.125Z,65.17
2022-08-17T20:28:03.840Z,65.12
2022-08-17T20:30:56.439Z,65.24
2022-08-17T20:33:45.368Z,65.43
2022-08-17T20:36:56.302Z,65.17
2022-08-17T20:39:52.697Z,65.27
2022-08-17T20:42:41.113Z,65.65
2022-08-17T20:46:02.052Z,65.52
2022-08-17T20:48:55.460Z,66.05
2022-08-17T20:52:00.777Z,65.58
2022-08-17T20:54:54.203Z,65.42
2022-08-17T20:57:47.478Z,65.63
2022-08-17T21:01:01.694Z,65.46
2022-08-17T21:03:52.506Z,65.44
2022-08-17T21:07:25.423Z,65.94
2022-08-17T21:10:24.311Z,66.43
2022-08-17T21:13:15.538Z,65.55
2022-08-17T21:16:38.395Z,66.08
2022-08-17T21:20:08.129Z,66.26
2022-08-17T21:23:22.402Z,66.52
2022-08-17T21:26:50.491Z,66.63
2022-08-17T21:30:21.357Z,65.81
2022-08-17T21:33:25.132Z,66.15
2022-08-17T21:36:12.929Z,66.54
2022-08-17T21:39:10.035Z,65.96
2022-08-17T21:41:58.846Z,66.44
2022-08-17T21:44:50.515Z,66.60
2022-08-17T21:47:43.787Z,66.44
2022-08-17T21:50:32.811Z,65.98
2022-08-17T21:53:50.155Z,66.28
2022-08-17T21:56:41.831Z,65.49
2022-08-17T21:59:40.066Z,65.69
2022-08-17T22:02:34.660Z,66.26
2022-08-17T22:05:51.763Z,66.36
2022-08-17T22:08:40.502Z,66.10
2022-08-17T22:11:28.772Z,66.65
2022-08-17T22:14:23.343Z,66.92
2022-08-17T22:17:27.099Z,66.66
2022-08-17T22:20:20.852Z,66.43
2022-08-17T22:23:33.242Z,66.07
2022-08-17T22:26:25.603Z,65.87
2022-08-17T22:29:57.672Z,65.71
2022-08-17T22:32:49.451Z,65.74
2022-08-17T22:35:43.722Z,65.25
2022-08-17T22:38:33.169Z,65.19
2022-08-17T22:41:37.209Z,65.04
2022-08-17T22:44:51.251Z,64.97
2022-08-17T22:47:41.305Z,64.72
2022-08-17T22:50:33.042Z,64.59
2022-08-17T22:53:42.675Z,64.36
2022-08-17T22:56:51.501Z,64.15
2022-08-17T22:59:51.144Z,63.95
2022-08-17T23:02:50.273Z,63.67
2022-08-17T23:06:10.732Z,63.62
2022-08-17T23:08:58.796Z,63.57
2022-08-17T23:11:51.007Z,63.36
2022-08-17T23:14:42.579Z,63.27
2022-08-17T23:17:37.121Z,63.34
2022-08-17T23:20:25.359Z,63.34
2022-08-17T23:23:14.531Z,63.52
2022-08-17T23:26:02.578Z,63.62
2022-08-17T23:28:50.846Z,63.02
2022-08-17T23:31:39.778Z,62.88
2022-08-17T23:34:28.946Z,62.62
2022-08-17T23:37:20.791Z,63.99
2022-08-17T23:40:09.741Z,63.75
2022-08-17T23:42:58.334Z,64.68
2022-08-17T23:45:46.838Z,64.73
2022-08-17T23:48:37.357Z,64.62
2022-08-17T23:51:35.969Z,64.23
2022-08-17T23:54:33.772Z,64.75
2022-08-17T23:57:33.637Z,65.37
